sensor_id;sensor_type;location;lat;lon;timestamp;P1;durP1;ratioP1;P2;durP2;ratioP2
59734;SDS011;64362;45.620;4.920;2024-01-30T00:01:01;4.03;;;2.05;;
59734;SDS011;64362;45.620;4.920;2024-01-30T00:03:26;4.93;;;2.50;;
59734;SDS011;64362;45.620;4.920;2024-01-30T00:05:52;3.53;;;2.10;;
59734;SDS011;64362;45.620;4.920;2024-01-30T00:08:17;4.45;;;2.40;;
59734;SDS011;64362;45.620;4.920;2024-01-30T00:10:42;3.90;;;2.10;;
59734;SDS011;64362;45.620;4.920;2024-01-30T00:13:08;4.45;;;1.98;;
59734;SDS011;64362;45.620;4.920;2024-01-30T00:15:34;2.55;;;1.88;;
59734;SDS011;64362;45.620;4.920;2024-01-30T00:17:59;3.97;;;2.33;;
59734;SDS011;64362;45.620;4.920;2024-01-30T00:20:25;3.95;;;2.40;;
59734;SDS011;64362;45.620;4.920;2024-01-30T00:22:50;3.92;;;2.60;;
59734;SDS011;64362;45.620;4.920;2024-01-30T00:25:16;6.50;;;2.55;;
59734;SDS011;64362;45.620;4.920;2024-01-30T00:27:41;2.72;;;2.00;;
59734;SDS011;64362;45.620;4.920;2024-01-30T00:30:07;3.35;;;2.17;;
59734;SDS011;64362;45.620;4.920;2024-01-30T00:32:33;2.72;;;2.08;;
59734;SDS011;64362;45.620;4.920;2024-01-30T00:34:58;3.70;;;2.08;;
59734;SDS011;64362;45.620;4.920;2024-01-30T00:37:24;2.83;;;2.05;;
59734;SDS011;64362;45.620;4.920;2024-01-30T00:39:49;3.30;;;2.13;;
59734;SDS011;64362;45.620;4.920;2024-01-30T00:42:15;3.28;;;2.15;;
59734;SDS011;64362;45.620;4.920;2024-01-30T00:44:40;3.65;;;2.30;;
59734;SDS011;64362;45.620;4.920;2024-01-30T00:47:06;4.93;;;2.45;;
59734;SDS011;64362;45.620;4.920;2024-01-30T00:49:31;4.40;;;2.05;;
59734;SDS011;64362;45.620;4.920;2024-01-30T00:51:57;4.25;;;1.90;;
59734;SDS011;64362;45.620;4.920;2024-01-30T00:54:22;3.92;;;1.90;;
59734;SDS011;64362;45.620;4.920;2024-01-30T00:56:48;4.25;;;1.88;;
59734;SDS011;64362;45.620;4.920;2024-01-30T00:59:13;4.05;;;1.90;;
59734;SDS011;64362;45.620;4.920;2024-01-30T01:01:39;3.35;;;2.00;;
59734;SDS011;64362;45.620;4.920;2024-01-30T01:04:05;3.63;;;2.00;;
59734;SDS011;64362;45.620;4.920;2024-01-30T01:06:30;2.67;;;2.00;;
59734;SDS011;64362;45.620;4.920;2024-01-30T01:08:56;3.33;;;2.10;;
59734;SDS011;64362;45.620;4.920;2024-01-30T01:11:21;4.30;;;1.90;;
59734;SDS011;64362;45.620;4.920;2024-01-30T01:13:47;4.03;;;2.10;;
59734;SDS011;64362;45.620;4.920;2024-01-30T01:16:13;2.95;;;2.05;;
59734;SDS011;64362;45.620;4.920;2024-01-30T01:18:38;4.40;;;2.38;;
59734;SDS011;64362;45.620;4.920;2024-01-30T01:21:04;3.67;;;1.95;;
59734;SDS011;64362;45.620;4.920;2024-01-30T01:23:30;3.33;;;1.90;;
59734;SDS011;64362;45.620;4.920;2024-01-30T01:25:55;4.13;;;2.25;;
59734;SDS011;64362;45.620;4.920;2024-01-30T01:28:21;2.90;;;2.00;;
59734;SDS011;64362;45.620;4.920;2024-01-30T01:30:46;2.55;;;2.00;;
59734;SDS011;64362;45.620;4.920;2024-01-30T01:33:11;2.70;;;1.83;;
59734;SDS011;64362;45.620;4.920;2024-01-30T01:35:39;2.67;;;2.17;;
59734;SDS011;64362;45.620;4.920;2024-01-30T01:38:05;2.78;;;1.90;;
59734;SDS011;64362;45.620;4.920;2024-01-30T01:40:30;3.50;;;1.90;;
59734;SDS011;64362;45.620;4.920;2024-01-30T01:42:56;3.50;;;2.08;;
59734;SDS011;64362;45.620;4.920;2024-01-30T01:45:21;2.60;;;1.63;;
59734;SDS011;64362;45.620;4.920;2024-01-30T01:47:47;3.08;;;1.90;;
59734;SDS011;64362;45.620;4.920;2024-01-30T01:50:15;3.63;;;2.03;;
59734;SDS011;64362;45.620;4.920;2024-01-30T01:52:44;3.15;;;2.00;;
59734;SDS011;64362;45.620;4.920;2024-01-30T01:55:11;3.13;;;1.70;;
59734;SDS011;64362;45.620;4.920;2024-01-30T01:57:37;4.78;;;2.22;;
59734;SDS011;64362;45.620;4.920;2024-01-30T02:00:02;2.80;;;1.77;;
59734;SDS011;64362;45.620;4.920;2024-01-30T02:02:35;2.65;;;1.77;;
59734;SDS011;64362;45.620;4.920;2024-01-30T02:05:01;2.50;;;1.40;;
59734;SDS011;64362;45.620;4.920;2024-01-30T02:07:27;2.45;;;1.80;;
59734;SDS011;64362;45.620;4.920;2024-01-30T02:09:53;2.55;;;1.80;;
59734;SDS011;64362;45.620;4.920;2024-01-30T02:12:19;2.33;;;1.60;;
59734;SDS011;64362;45.620;4.920;2024-01-30T02:14:48;3.40;;;1.77;;
59734;SDS011;64362;45.620;4.920;2024-01-30T02:17:15;2.83;;;2.03;;
59734;SDS011;64362;45.620;4.920;2024-01-30T02:19:41;3.22;;;1.85;;
59734;SDS011;64362;45.620;4.920;2024-01-30T02:22:06;3.15;;;1.77;;
59734;SDS011;64362;45.620;4.920;2024-01-30T02:24:32;2.03;;;1.30;;
59734;SDS011;64362;45.620;4.920;2024-01-30T02:26:58;2.83;;;1.90;;
59734;SDS011;64362;45.620;4.920;2024-01-30T02:29:29;2.85;;;1.88;;
59734;SDS011;64362;45.620;4.920;2024-01-30T02:31:55;3.40;;;1.90;;
59734;SDS011;64362;45.620;4.920;2024-01-30T02:34:20;2.75;;;1.75;;
59734;SDS011;64362;45.620;4.920;2024-01-30T02:36:46;2.78;;;1.85;;
59734;SDS011;64362;45.620;4.920;2024-01-30T02:39:11;2.90;;;1.85;;
59734;SDS011;64362;45.620;4.920;2024-01-30T02:41:37;3.00;;;1.90;;
59734;SDS011;64362;45.620;4.920;2024-01-30T02:44:03;3.25;;;1.85;;
59734;SDS011;64362;45.620;4.920;2024-01-30T02:46:29;3.30;;;1.67;;
59734;SDS011;64362;45.620;4.920;2024-01-30T02:48:54;3.35;;;1.60;;
59734;SDS011;64362;45.620;4.920;2024-01-30T02:51:20;3.72;;;1.85;;
59734;SDS011;64362;45.620;4.920;2024-01-30T02:53:45;2.78;;;1.73;;
59734;SDS011;64362;45.620;4.920;2024-01-30T02:56:11;3.25;;;1.90;;
59734;SDS011;64362;45.620;4.920;2024-01-30T02:58:38;3.28;;;1.70;;
59734;SDS011;64362;45.620;4.920;2024-01-30T03:01:04;3.25;;;1.77;;
59734;SDS011;64362;45.620;4.920;2024-01-30T03:03:30;3.25;;;1.65;;
59734;SDS011;64362;45.620;4.920;2024-01-30T03:05:55;2.75;;;1.63;;
59734;SDS011;64362;45.620;4.920;2024-01-30T03:08:21;2.33;;;1.70;;
59734;SDS011;64362;45.620;4.920;2024-01-30T03:10:46;2.97;;;1.73;;
59734;SDS011;64362;45.620;4.920;2024-01-30T03:13:12;2.70;;;1.73;;
59734;SDS011;64362;45.620;4.920;2024-01-30T03:15:37;3.17;;;1.77;;
59734;SDS011;64362;45.620;4.920;2024-01-30T03:18:03;3.42;;;1.52;;
59734;SDS011;64362;45.620;4.920;2024-01-30T03:20:29;2.30;;;1.80;;
59734;SDS011;64362;45.620;4.920;2024-01-30T03:22:55;2.25;;;1.60;;
59734;SDS011;64362;45.620;4.920;2024-01-30T03:25:21;2.88;;;1.90;;
59734;SDS011;64362;45.620;4.920;2024-01-30T03:27:46;2.78;;;1.70;;
59734;SDS011;64362;45.620;4.920;2024-01-30T03:30:12;2.72;;;1.80;;
59734;SDS011;64362;45.620;4.920;2024-01-30T03:32:37;2.35;;;1.60;;
59734;SDS011;64362;45.620;4.920;2024-01-30T03:35:02;2.13;;;1.45;;
59734;SDS011;64362;45.620;4.920;2024-01-30T03:37:29;2.30;;;1.60;;
59734;SDS011;64362;45.620;4.920;2024-01-30T03:39:54;2.58;;;1.40;;
59734;SDS011;64362;45.620;4.920;2024-01-30T03:42:19;1.63;;;1.30;;
59734;SDS011;64362;45.620;4.920;2024-01-30T03:44:45;2.78;;;2.20;;
59734;SDS011;64362;45.620;4.920;2024-01-30T03:47:11;3.40;;;1.70;;
59734;SDS011;64362;45.620;4.920;2024-01-30T03:49:36;2.03;;;1.60;;
59734;SDS011;64362;45.620;4.920;2024-01-30T03:52:02;2.55;;;1.70;;
59734;SDS011;64362;45.620;4.920;2024-01-30T03:54:27;2.00;;;1.50;;
59734;SDS011;64362;45.620;4.920;2024-01-30T03:56:53;2.55;;;1.77;;
59734;SDS011;64362;45.620;4.920;2024-01-30T03:59:19;3.42;;;2.00;;
59734;SDS011;64362;45.620;4.920;2024-01-30T04:01:49;2.47;;;1.60;;
59734;SDS011;64362;45.620;4.920;2024-01-30T04:04:16;2.63;;;1.77;;
59734;SDS011;64362;45.620;4.920;2024-01-30T04:06:42;2.63;;;1.60;;
59734;SDS011;64362;45.620;4.920;2024-01-30T04:09:09;2.75;;;1.80;;
59734;SDS011;64362;45.620;4.920;2024-01-30T04:11:34;2.25;;;1.73;;
59734;SDS011;64362;45.620;4.920;2024-01-30T04:14:00;2.63;;;1.90;;
59734;SDS011;64362;45.620;4.920;2024-01-30T04:16:26;2.55;;;1.55;;
59734;SDS011;64362;45.620;4.920;2024-01-30T04:18:51;3.45;;;1.90;;
59734;SDS011;64362;45.620;4.920;2024-01-30T04:21:17;3.58;;;1.65;;
59734;SDS011;64362;45.620;4.920;2024-01-30T04:23:42;2.42;;;1.58;;
59734;SDS011;64362;45.620;4.920;2024-01-30T04:26:08;4.18;;;1.90;;
59734;SDS011;64362;45.620;4.920;2024-01-30T04:28:33;3.05;;;1.50;;
59734;SDS011;64362;45.620;4.920;2024-01-30T04:30:59;2.70;;;1.70;;
59734;SDS011;64362;45.620;4.920;2024-01-30T04:33:24;3.38;;;1.92;;
59734;SDS011;64362;45.620;4.920;2024-01-30T04:35:50;2.70;;;1.70;;
59734;SDS011;64362;45.620;4.920;2024-01-30T04:38:15;3.10;;;2.33;;
59734;SDS011;64362;45.620;4.920;2024-01-30T04:40:41;2.92;;;1.70;;
59734;SDS011;64362;45.620;4.920;2024-01-30T04:43:06;3.85;;;2.17;;
59734;SDS011;64362;45.620;4.920;2024-01-30T04:45:32;2.92;;;1.55;;
59734;SDS011;64362;45.620;4.920;2024-01-30T04:47:57;3.03;;;1.70;;
59734;SDS011;64362;45.620;4.920;2024-01-30T04:50:23;3.15;;;1.60;;
59734;SDS011;64362;45.620;4.920;2024-01-30T04:52:48;2.08;;;1.60;;
59734;SDS011;64362;45.620;4.920;2024-01-30T04:55:14;3.47;;;2.00;;
59734;SDS011;64362;45.620;4.920;2024-01-30T04:57:39;3.42;;;1.80;;
59734;SDS011;64362;45.620;4.920;2024-01-30T05:00:05;4.63;;;1.90;;
59734;SDS011;64362;45.620;4.920;2024-01-30T05:02:31;4.47;;;2.00;;
59734;SDS011;64362;45.620;4.920;2024-01-30T05:04:57;2.63;;;1.85;;
59734;SDS011;64362;45.620;4.920;2024-01-30T05:07:24;2.25;;;1.65;;
59734;SDS011;64362;45.620;4.920;2024-01-30T05:09:50;3.17;;;1.85;;
59734;SDS011;64362;45.620;4.920;2024-01-30T05:12:15;2.53;;;1.60;;
59734;SDS011;64362;45.620;4.920;2024-01-30T05:14:41;3.42;;;2.10;;
59734;SDS011;64362;45.620;4.920;2024-01-30T05:17:06;2.88;;;1.73;;
59734;SDS011;64362;45.620;4.920;2024-01-30T05:19:34;3.08;;;1.60;;
59734;SDS011;64362;45.620;4.920;2024-01-30T05:21:59;2.78;;;1.70;;
59734;SDS011;64362;45.620;4.920;2024-01-30T05:24:25;2.83;;;1.67;;
59734;SDS011;64362;45.620;4.920;2024-01-30T05:26:50;3.95;;;1.70;;
59734;SDS011;64362;45.620;4.920;2024-01-30T05:29:16;2.65;;;1.83;;
59734;SDS011;64362;45.620;4.920;2024-01-30T05:31:42;3.20;;;2.08;;
59734;SDS011;64362;45.620;4.920;2024-01-30T05:34:07;2.08;;;1.52;;
59734;SDS011;64362;45.620;4.920;2024-01-30T05:36:34;3.30;;;1.70;;
59734;SDS011;64362;45.620;4.920;2024-01-30T05:38:59;3.05;;;1.67;;
59734;SDS011;64362;45.620;4.920;2024-01-30T05:41:25;2.65;;;1.38;;
59734;SDS011;64362;45.620;4.920;2024-01-30T05:43:53;3.10;;;1.85;;
59734;SDS011;64362;45.620;4.920;2024-01-30T05:46:19;2.17;;;1.55;;
59734;SDS011;64362;45.620;4.920;2024-01-30T05:48:44;3.35;;;1.70;;
59734;SDS011;64362;45.620;4.920;2024-01-30T05:51:10;2.85;;;1.73;;
59734;SDS011;64362;45.620;4.920;2024-01-30T05:53:35;3.40;;;1.65;;
59734;SDS011;64362;45.620;4.920;2024-01-30T05:56:01;2.50;;;1.70;;
59734;SDS011;64362;45.620;4.920;2024-01-30T05:58:27;2.63;;;1.70;;
59734;SDS011;64362;45.620;4.920;2024-01-30T06:00:52;2.60;;;1.85;;
59734;SDS011;64362;45.620;4.920;2024-01-30T06:03:18;2.25;;;1.60;;
59734;SDS011;64362;45.620;4.920;2024-01-30T06:05:43;2.97;;;1.77;;
59734;SDS011;64362;45.620;4.920;2024-01-30T06:08:09;2.58;;;1.55;;
59734;SDS011;64362;45.620;4.920;2024-01-30T06:10:34;2.55;;;2.08;;
59734;SDS011;64362;45.620;4.920;2024-01-30T06:13:00;2.63;;;1.88;;
59734;SDS011;64362;45.620;4.920;2024-01-30T06:15:25;2.50;;;1.65;;
59734;SDS011;64362;45.620;4.920;2024-01-30T06:17:51;2.38;;;1.70;;
59734;SDS011;64362;45.620;4.920;2024-01-30T06:20:16;2.38;;;1.70;;
59734;SDS011;64362;45.620;4.920;2024-01-30T06:22:43;2.65;;;1.70;;
59734;SDS011;64362;45.620;4.920;2024-01-30T06:25:08;2.90;;;1.80;;
59734;SDS011;64362;45.620;4.920;2024-01-30T06:27:34;2.25;;;1.52;;
59734;SDS011;64362;45.620;4.920;2024-01-30T06:29:59;3.22;;;1.83;;
59734;SDS011;64362;45.620;4.920;2024-01-30T06:32:25;2.45;;;1.63;;
59734;SDS011;64362;45.620;4.920;2024-01-30T06:34:50;4.05;;;1.70;;
59734;SDS011;64362;45.620;4.920;2024-01-30T06:37:15;2.35;;;1.50;;
59734;SDS011;64362;45.620;4.920;2024-01-30T06:39:41;3.00;;;1.67;;
59734;SDS011;64362;45.620;4.920;2024-01-30T06:42:06;3.17;;;1.88;;
59734;SDS011;64362;45.620;4.920;2024-01-30T06:44:32;2.60;;;1.65;;
59734;SDS011;64362;45.620;4.920;2024-01-30T06:46:57;2.83;;;1.63;;
59734;SDS011;64362;45.620;4.920;2024-01-30T06:49:23;4.30;;;1.88;;
59734;SDS011;64362;45.620;4.920;2024-01-30T06:51:48;3.67;;;1.65;;
59734;SDS011;64362;45.620;4.920;2024-01-30T06:54:13;3.92;;;1.90;;
59734;SDS011;64362;45.620;4.920;2024-01-30T06:56:39;2.90;;;1.70;;
59734;SDS011;64362;45.620;4.920;2024-01-30T06:59:05;3.35;;;1.65;;
59734;SDS011;64362;45.620;4.920;2024-01-30T07:01:31;4.07;;;1.65;;
59734;SDS011;64362;45.620;4.920;2024-01-30T07:03:57;5.45;;;1.50;;
59734;SDS011;64362;45.620;4.920;2024-01-30T07:06:22;4.20;;;1.75;;
59734;SDS011;64362;45.620;4.920;2024-01-30T07:08:49;4.85;;;1.63;;
59734;SDS011;64362;45.620;4.920;2024-01-30T07:11:18;5.28;;;1.65;;
59734;SDS011;64362;45.620;4.920;2024-01-30T07:13:45;3.03;;;1.50;;
59734;SDS011;64362;45.620;4.920;2024-01-30T07:16:10;6.20;;;2.10;;
59734;SDS011;64362;45.620;4.920;2024-01-30T07:18:35;4.20;;;1.75;;
59734;SDS011;64362;45.620;4.920;2024-01-30T07:21:01;3.80;;;2.00;;
59734;SDS011;64362;45.620;4.920;2024-01-30T07:23:27;4.03;;;1.90;;
59734;SDS011;64362;45.620;4.920;2024-01-30T07:25:54;7.43;;;1.83;;
59734;SDS011;64362;45.620;4.920;2024-01-30T07:28:19;4.65;;;2.08;;
59734;SDS011;64362;45.620;4.920;2024-01-30T07:30:45;6.40;;;1.88;;
59734;SDS011;64362;45.620;4.920;2024-01-30T07:33:11;4.45;;;1.55;;
59734;SDS011;64362;45.620;4.920;2024-01-30T07:35:36;5.57;;;1.90;;
59734;SDS011;64362;45.620;4.920;2024-01-30T07:38:02;2.13;;;1.33;;
59734;SDS011;64362;45.620;4.920;2024-01-30T07:40:27;3.10;;;1.70;;
59734;SDS011;64362;45.620;4.920;2024-01-30T07:42:53;4.55;;;1.50;;
59734;SDS011;64362;45.620;4.920;2024-01-30T07:45:19;3.63;;;1.55;;
59734;SDS011;64362;45.620;4.920;2024-01-30T07:47:48;3.40;;;1.65;;
59734;SDS011;64362;45.620;4.920;2024-01-30T07:50:14;3.95;;;1.50;;
59734;SDS011;64362;45.620;4.920;2024-01-30T07:52:40;4.38;;;1.58;;
59734;SDS011;64362;45.620;4.920;2024-01-30T07:55:05;3.63;;;1.70;;
59734;SDS011;64362;45.620;4.920;2024-01-30T07:57:33;4.53;;;1.95;;
59734;SDS011;64362;45.620;4.920;2024-01-30T07:59:59;3.83;;;1.90;;
59734;SDS011;64362;45.620;4.920;2024-01-30T08:02:25;3.03;;;1.55;;
59734;SDS011;64362;45.620;4.920;2024-01-30T08:04:50;3.38;;;1.58;;
59734;SDS011;64362;45.620;4.920;2024-01-30T08:07:16;5.60;;;1.60;;
59734;SDS011;64362;45.620;4.920;2024-01-30T08:09:42;4.07;;;1.73;;
59734;SDS011;64362;45.620;4.920;2024-01-30T08:12:08;4.25;;;1.70;;
59734;SDS011;64362;45.620;4.920;2024-01-30T08:14:34;5.35;;;1.58;;
59734;SDS011;64362;45.620;4.920;2024-01-30T08:16:59;3.28;;;1.70;;
59734;SDS011;64362;45.620;4.920;2024-01-30T08:19:25;4.20;;;1.75;;
59734;SDS011;64362;45.620;4.920;2024-01-30T08:21:50;4.35;;;1.80;;
59734;SDS011;64362;45.620;4.920;2024-01-30T08:24:16;3.53;;;2.00;;
59734;SDS011;64362;45.620;4.920;2024-01-30T08:26:41;3.95;;;2.08;;
59734;SDS011;64362;45.620;4.920;2024-01-30T08:29:07;4.75;;;1.80;;
59734;SDS011;64362;45.620;4.920;2024-01-30T08:31:32;4.10;;;2.10;;
59734;SDS011;64362;45.620;4.920;2024-01-30T08:33:57;4.50;;;2.17;;
59734;SDS011;64362;45.620;4.920;2024-01-30T08:36:23;2.95;;;1.85;;
59734;SDS011;64362;45.620;4.920;2024-01-30T08:38:50;4.25;;;1.95;;
59734;SDS011;64362;45.620;4.920;2024-01-30T08:41:15;3.25;;;2.05;;
59734;SDS011;64362;45.620;4.920;2024-01-30T08:43:41;3.63;;;1.65;;
59734;SDS011;64362;45.620;4.920;2024-01-30T08:46:06;3.90;;;2.20;;
59734;SDS011;64362;45.620;4.920;2024-01-30T08:48:32;3.88;;;2.30;;
59734;SDS011;64362;45.620;4.920;2024-01-30T08:50:57;3.63;;;2.05;;
59734;SDS011;64362;45.620;4.920;2024-01-30T08:53:22;2.60;;;1.92;;
59734;SDS011;64362;45.620;4.920;2024-01-30T08:55:48;2.72;;;1.70;;
59734;SDS011;64362;45.620;4.920;2024-01-30T08:58:13;3.40;;;1.98;;
59734;SDS011;64362;45.620;4.920;2024-01-30T09:00:40;4.63;;;1.90;;
59734;SDS011;64362;45.620;4.920;2024-01-30T09:03:06;5.82;;;2.03;;
59734;SDS011;64362;45.620;4.920;2024-01-30T09:05:31;2.80;;;1.55;;
59734;SDS011;64362;45.620;4.920;2024-01-30T09:07:57;3.63;;;1.67;;
59734;SDS011;64362;45.620;4.920;2024-01-30T09:10:22;3.40;;;1.90;;
59734;SDS011;64362;45.620;4.920;2024-01-30T09:12:48;3.08;;;1.67;;
59734;SDS011;64362;45.620;4.920;2024-01-30T09:15:14;3.08;;;1.60;;
59734;SDS011;64362;45.620;4.920;2024-01-30T09:17:40;2.20;;;1.63;;
59734;SDS011;64362;45.620;4.920;2024-01-30T09:20:05;3.45;;;1.83;;
59734;SDS011;64362;45.620;4.920;2024-01-30T09:22:31;4.28;;;1.58;;
59734;SDS011;64362;45.620;4.920;2024-01-30T09:24:57;1.95;;;1.52;;
59734;SDS011;64362;45.620;4.920;2024-01-30T09:27:22;2.60;;;1.75;;
59734;SDS011;64362;45.620;4.920;2024-01-30T09:29:48;3.90;;;1.60;;
59734;SDS011;64362;45.620;4.920;2024-01-30T09:32:13;2.10;;;1.52;;
59734;SDS011;64362;45.620;4.920;2024-01-30T09:34:39;2.47;;;1.85;;
59734;SDS011;64362;45.620;4.920;2024-01-30T09:37:04;2.75;;;1.70;;
59734;SDS011;64362;45.620;4.920;2024-01-30T09:39:30;3.03;;;1.70;;
59734;SDS011;64362;45.620;4.920;2024-01-30T09:42:00;2.72;;;1.80;;
59734;SDS011;64362;45.620;4.920;2024-01-30T09:44:30;2.75;;;1.88;;
59734;SDS011;64362;45.620;4.920;2024-01-30T09:46:56;3.13;;;1.75;;
59734;SDS011;64362;45.620;4.920;2024-01-30T09:49:23;3.33;;;1.80;;
59734;SDS011;64362;45.620;4.920;2024-01-30T09:51:50;3.72;;;2.17;;
59734;SDS011;64362;45.620;4.920;2024-01-30T09:54:15;2.72;;;1.52;;
59734;SDS011;64362;45.620;4.920;2024-01-30T09:56:41;2.58;;;1.50;;
59734;SDS011;64362;45.620;4.920;2024-01-30T09:59:06;4.15;;;1.83;;
59734;SDS011;64362;45.620;4.920;2024-01-30T10:01:33;3.63;;;1.80;;
59734;SDS011;64362;45.620;4.920;2024-01-30T10:03:59;2.50;;;1.52;;
59734;SDS011;64362;45.620;4.920;2024-01-30T10:06:25;3.08;;;2.00;;
59734;SDS011;64362;45.620;4.920;2024-01-30T10:08:51;2.83;;;1.60;;
59734;SDS011;64362;45.620;4.920;2024-01-30T10:11:17;2.25;;;1.80;;
59734;SDS011;64362;45.620;4.920;2024-01-30T10:13:42;3.00;;;1.63;;
59734;SDS011;64362;45.620;4.920;2024-01-30T10:16:08;2.28;;;1.63;;
59734;SDS011;64362;45.620;4.920;2024-01-30T10:18:34;2.65;;;1.73;;
59734;SDS011;64362;45.620;4.920;2024-01-30T10:20:59;2.05;;;1.40;;
59734;SDS011;64362;45.620;4.920;2024-01-30T10:23:25;2.35;;;1.55;;
59734;SDS011;64362;45.620;4.920;2024-01-30T10:25:51;2.97;;;1.75;;
59734;SDS011;64362;45.620;4.920;2024-01-30T10:28:17;2.78;;;1.35;;
59734;SDS011;64362;45.620;4.920;2024-01-30T10:30:42;2.83;;;1.50;;
59734;SDS011;64362;45.620;4.920;2024-01-30T10:33:08;2.60;;;1.55;;
59734;SDS011;64362;45.620;4.920;2024-01-30T10:35:33;2.10;;;1.58;;
59734;SDS011;64362;45.620;4.920;2024-01-30T10:37:59;2.80;;;1.80;;
59734;SDS011;64362;45.620;4.920;2024-01-30T10:40:26;2.40;;;1.70;;
59734;SDS011;64362;45.620;4.920;2024-01-30T10:42:53;2.35;;;1.33;;
59734;SDS011;64362;45.620;4.920;2024-01-30T10:45:20;2.30;;;1.50;;
59734;SDS011;64362;45.620;4.920;2024-01-30T10:47:50;2.47;;;1.58;;
59734;SDS011;64362;45.620;4.920;2024-01-30T10:50:18;2.10;;;1.52;;
59734;SDS011;64362;45.620;4.920;2024-01-30T10:52:44;2.47;;;1.60;;
59734;SDS011;64362;45.620;4.920;2024-01-30T10:55:10;2.80;;;1.67;;
59734;SDS011;64362;45.620;4.920;2024-01-30T10:57:36;2.30;;;1.60;;
59734;SDS011;64362;45.620;4.920;2024-01-30T11:00:08;1.85;;;1.35;;
59734;SDS011;64362;45.620;4.920;2024-01-30T11:02:36;2.42;;;1.70;;
59734;SDS011;64362;45.620;4.920;2024-01-30T11:05:04;2.70;;;1.55;;
59734;SDS011;64362;45.620;4.920;2024-01-30T11:07:29;2.03;;;1.33;;
59734;SDS011;64362;45.620;4.920;2024-01-30T11:12:24;2.42;;;1.50;;
59734;SDS011;64362;45.620;4.920;2024-01-30T11:15:03;2.25;;;1.63;;
59734;SDS011;64362;45.620;4.920;2024-01-30T11:20:15;2.50;;;1.60;;
59734;SDS011;64362;45.620;4.920;2024-01-30T11:22:42;2.05;;;1.33;;
59734;SDS011;64362;45.620;4.920;2024-01-30T11:25:13;2.17;;;1.30;;
59734;SDS011;64362;45.620;4.920;2024-01-30T11:27:40;2.75;;;1.80;;
59734;SDS011;64362;45.620;4.920;2024-01-30T11:30:07;2.47;;;1.60;;
59734;SDS011;64362;45.620;4.920;2024-01-30T11:32:33;1.85;;;1.30;;
59734;SDS011;64362;45.620;4.920;2024-01-30T11:34:58;2.20;;;1.45;;
59734;SDS011;64362;45.620;4.920;2024-01-30T11:37:25;2.40;;;1.67;;
59734;SDS011;64362;45.620;4.920;2024-01-30T11:39:53;2.53;;;1.67;;
59734;SDS011;64362;45.620;4.920;2024-01-30T11:42:19;2.50;;;1.52;;
59734;SDS011;64362;45.620;4.920;2024-01-30T11:44:47;2.00;;;1.48;;
59734;SDS011;64362;45.620;4.920;2024-01-30T11:47:14;2.28;;;1.67;;
59734;SDS011;64362;45.620;4.920;2024-01-30T11:49:39;3.55;;;1.63;;
59734;SDS011;64362;45.620;4.920;2024-01-30T11:52:05;2.55;;;1.55;;
59734;SDS011;64362;45.620;4.920;2024-01-30T11:54:30;2.25;;;1.48;;
59734;SDS011;64362;45.620;4.920;2024-01-30T11:56:57;2.20;;;1.23;;
59734;SDS011;64362;45.620;4.920;2024-01-30T11:59:22;2.55;;;1.45;;
59734;SDS011;64362;45.620;4.920;2024-01-30T12:01:47;2.72;;;1.70;;
59734;SDS011;64362;45.620;4.920;2024-01-30T12:04:13;3.13;;;1.60;;
59734;SDS011;64362;45.620;4.920;2024-01-30T12:06:38;2.70;;;1.63;;
59734;SDS011;64362;45.620;4.920;2024-01-30T12:09:05;1.77;;;1.20;;
59734;SDS011;64362;45.620;4.920;2024-01-30T12:11:33;2.67;;;1.70;;
59734;SDS011;64362;45.620;4.920;2024-01-30T12:13:58;3.53;;;1.55;;
59734;SDS011;64362;45.620;4.920;2024-01-30T12:16:24;3.33;;;1.90;;
59734;SDS011;64362;45.620;4.920;2024-01-30T12:18:49;3.80;;;2.00;;
59734;SDS011;64362;45.620;4.920;2024-01-30T12:21:24;2.70;;;1.83;;
59734;SDS011;64362;45.620;4.920;2024-01-30T12:23:50;3.42;;;2.17;;
59734;SDS011;64362;45.620;4.920;2024-01-30T12:26:15;4.53;;;1.92;;
59734;SDS011;64362;45.620;4.920;2024-01-30T12:28:47;3.55;;;2.10;;
59734;SDS011;64362;45.620;4.920;2024-01-30T12:31:14;4.53;;;2.33;;
59734;SDS011;64362;45.620;4.920;2024-01-30T12:33:39;3.03;;;2.28;;
59734;SDS011;64362;45.620;4.920;2024-01-30T12:36:05;2.90;;;2.22;;
59734;SDS011;64362;45.620;4.920;2024-01-30T12:38:30;3.13;;;2.17;;
59734;SDS011;64362;45.620;4.920;2024-01-30T12:40:56;3.17;;;2.25;;
59734;SDS011;64362;45.620;4.920;2024-01-30T12:43:26;3.33;;;2.35;;
59734;SDS011;64362;45.620;4.920;2024-01-30T12:45:52;4.55;;;2.05;;
59734;SDS011;64362;45.620;4.920;2024-01-30T12:48:18;3.25;;;2.80;;
59734;SDS011;64362;45.620;4.920;2024-01-30T12:50:43;3.50;;;2.35;;
59734;SDS011;64362;45.620;4.920;2024-01-30T12:53:09;3.15;;;2.20;;
59734;SDS011;64362;45.620;4.920;2024-01-30T12:55:34;2.72;;;2.05;;
59734;SDS011;64362;45.620;4.920;2024-01-30T12:58:00;3.80;;;2.30;;
59734;SDS011;64362;45.620;4.920;2024-01-30T13:00:26;4.53;;;2.50;;
59734;SDS011;64362;45.620;4.920;2024-01-30T13:02:52;3.47;;;2.17;;
59734;SDS011;64362;45.620;4.920;2024-01-30T13:05:17;3.30;;;2.22;;
59734;SDS011;64362;45.620;4.920;2024-01-30T13:07:43;2.63;;;2.20;;
59734;SDS011;64362;45.620;4.920;2024-01-30T13:10:09;2.80;;;2.08;;
59734;SDS011;64362;45.620;4.920;2024-01-30T13:12:34;3.42;;;2.30;;
59734;SDS011;64362;45.620;4.920;2024-01-30T13:15:00;3.03;;;2.30;;
59734;SDS011;64362;45.620;4.920;2024-01-30T13:17:26;2.65;;;2.15;;
59734;SDS011;64362;45.620;4.920;2024-01-30T13:19:52;3.60;;;2.58;;
59734;SDS011;64362;45.620;4.920;2024-01-30T13:22:19;4.72;;;2.40;;
59734;SDS011;64362;45.620;4.920;2024-01-30T13:24:46;3.85;;;2.50;;
59734;SDS011;64362;45.620;4.920;2024-01-30T13:27:12;2.45;;;1.95;;
59734;SDS011;64362;45.620;4.920;2024-01-30T13:29:37;3.92;;;2.50;;
59734;SDS011;64362;45.620;4.920;2024-01-30T13:32:03;4.32;;;2.20;;
59734;SDS011;64362;45.620;4.920;2024-01-30T13:34:29;3.95;;;2.50;;
59734;SDS011;64362;45.620;4.920;2024-01-30T13:36:54;4.07;;;2.05;;
59734;SDS011;64362;45.620;4.920;2024-01-30T13:39:20;4.15;;;2.20;;
59734;SDS011;64362;45.620;4.920;2024-01-30T13:41:45;3.38;;;2.15;;
59734;SDS011;64362;45.620;4.920;2024-01-30T13:44:11;4.95;;;2.30;;
59734;SDS011;64362;45.620;4.920;2024-01-30T13:46:36;3.38;;;2.42;;
59734;SDS011;64362;45.620;4.920;2024-01-30T13:49:03;4.38;;;2.30;;
59734;SDS011;64362;45.620;4.920;2024-01-30T13:51:28;4.43;;;2.17;;
59734;SDS011;64362;45.620;4.920;2024-01-30T13:53:54;3.35;;;2.20;;
59734;SDS011;64362;45.620;4.920;2024-01-30T13:56:20;3.30;;;2.17;;
59734;SDS011;64362;45.620;4.920;2024-01-30T13:58:47;3.60;;;2.30;;
59734;SDS011;64362;45.620;4.920;2024-01-30T14:01:14;4.22;;;2.42;;
59734;SDS011;64362;45.620;4.920;2024-01-30T14:03:39;3.58;;;2.20;;
59734;SDS011;64362;45.620;4.920;2024-01-30T14:06:05;4.03;;;2.20;;
59734;SDS011;64362;45.620;4.920;2024-01-30T14:08:31;2.97;;;2.35;;
59734;SDS011;64362;45.620;4.920;2024-01-30T14:10:56;2.85;;;1.95;;
59734;SDS011;64362;45.620;4.920;2024-01-30T14:13:22;2.97;;;2.20;;
59734;SDS011;64362;45.620;4.920;2024-01-30T14:15:48;2.85;;;1.88;;
59734;SDS011;64362;45.620;4.920;2024-01-30T14:18:14;3.92;;;2.13;;
59734;SDS011;64362;45.620;4.920;2024-01-30T14:20:40;3.50;;;1.85;;
59734;SDS011;64362;45.620;4.920;2024-01-30T14:23:06;2.60;;;2.10;;
59734;SDS011;64362;45.620;4.920;2024-01-30T14:25:32;2.97;;;2.20;;
59734;SDS011;64362;45.620;4.920;2024-01-30T14:27:57;3.70;;;2.05;;
59734;SDS011;64362;45.620;4.920;2024-01-30T14:30:23;2.97;;;2.00;;
59734;SDS011;64362;45.620;4.920;2024-01-30T14:32:48;3.25;;;1.92;;
59734;SDS011;64362;45.620;4.920;2024-01-30T14:35:14;3.22;;;1.75;;
59734;SDS011;64362;45.620;4.920;2024-01-30T14:37:40;5.00;;;1.90;;
59734;SDS011;64362;45.620;4.920;2024-01-30T14:40:05;3.17;;;2.03;;
59734;SDS011;64362;45.620;4.920;2024-01-30T14:42:34;3.58;;;1.65;;
59734;SDS011;64362;45.620;4.920;2024-01-30T14:45:01;3.70;;;1.90;;